createdAt,value
2022-08-26T00:01:41.702Z,72.81
2022-08-26T00:04:11.663Z,71.97
2022-08-26T00:06:38.735Z,72.00
2022-08-26T00:09:09.612Z,70.40
2022-08-26T00:11:36.550Z,71.10
2022-08-26T00:14:03.053Z,70.35
2022-08-26T00:16:29.964Z,71.01
2022-08-26T00:19:19.016Z,70.88
2022-08-26T00:22:06.963Z,70.76
2022-08-26T00:24:53.387Z,71.92
2022-08-26T00:27:40.995Z,71.96
2022-08-26T00:30:29.747Z,72.47
2022-08-26T00:33:18.504Z,72.33
2022-08-26T00:35:47.559Z,73.34
2022-08-26T00:38:14.760Z,74.09
2022-08-26T00:40:51.388Z,74.51
2022-08-26T00:43:19.796Z,74.97
2022-08-26T00:45:54.187Z,75.80
2022-08-26T00:48:24.513Z,75.32
2022-08-26T00:50:58.332Z,76.08
2022-08-26T00:53:30.255Z,75.74
2022-08-26T00:56:07.863Z,76.41
2022-08-26T00:58:38.444Z,76.18
2022-08-26T01:01:07.500Z,76.98
2022-08-26T01:03:35.119Z,76.10
2022-08-26T01:06:03.874Z,76.77
2022-08-26T01:08:31.503Z,77.13
2022-08-26T01:11:01.286Z,77.35
2022-08-26T01:13:30.144Z,78.30
2022-08-26T01:16:00.838Z,78.74
2022-08-26T01:18:29.486Z,77.68
2022-08-26T01:21:08.139Z,76.75
2022-08-26T01:23:39.087Z,77.27
2022-08-26T01:26:19.597Z,77.44
2022-08-26T01:28:51.770Z,77.48
2022-08-26T01:31:22.334Z,77.53
2022-08-26T01:34:05.710Z,77.56
2022-08-26T01:36:32.477Z,77.99
2022-08-26T01:38:59.324Z,77.76
2022-08-26T01:41:27.451Z,78.16
2022-08-26T01:43:57.928Z,78.45
2022-08-26T01:46:26.810Z,77.77
2022-08-26T01:48:55.419Z,77.76
2022-08-26T01:51:25.304Z,77.55
2022-08-26T01:53:52.173Z,79.01
2022-08-26T01:56:23.167Z,78.33
2022-08-26T01:58:57.084Z,78.40
2022-08-26T02:01:28.931Z,78.81
2022-08-26T02:04:23.586Z,80.04
2022-08-26T02:06:51.582Z,80.95
2022-08-26T02:09:21.324Z,80.78
2022-08-26T02:11:48.631Z,82.24
2022-08-26T02:14:24.629Z,80.23
2022-08-26T02:16:54.673Z,81.46
2022-08-26T02:19:31.639Z,81.49
2022-08-26T02:22:03.830Z,81.08
2022-08-26T02:24:49.928Z,80.51
2022-08-26T02:27:21.074Z,80.98
2022-08-26T02:29:53.747Z,81.17
2022-08-26T02:32:20.243Z,81.85
2022-08-26T02:34:47.018Z,81.94
2022-08-26T02:37:14.432Z,82.31
2022-08-26T02:39:44.475Z,83.32
2022-08-26T02:42:12.176Z,84.08
2022-08-26T02:44:39.240Z,84.06
2022-08-26T02:47:07.762Z,84.73
2022-08-26T02:49:35.947Z,85.54
2022-08-26T02:52:03.300Z,85.88
2022-08-26T02:54:30.017Z,86.07
2022-08-26T02:56:56.586Z,86.10
2022-08-26T02:59:24.921Z,86.29
2022-08-26T03:01:52.160Z,86.62
2022-08-26T03:04:25.849Z,86.55
2022-08-26T03:06:53.625Z,86.91
2022-08-26T03:09:23.425Z,85.79
2022-08-26T03:11:50.179Z,86.60
2022-08-26T03:14:16.839Z,85.89
2022-08-26T03:16:43.696Z,85.74
2022-08-26T03:19:15.072Z,85.85
2022-08-26T03:21:45.232Z,86.75
2022-08-26T03:24:15.078Z,86.82
2022-08-26T03:26:52.183Z,87.73
2022-08-26T03:29:40.444Z,88.91
2022-08-26T03:32:08.466Z,88.44
2022-08-26T03:34:36.293Z,88.48
2022-08-26T03:37:03.328Z,88.72
2022-08-26T03:39:31.474Z,88.69
2022-08-26T03:41:58.806Z,88.80
2022-08-26T03:44:26.358Z,89.56
2022-08-26T03:46:53.900Z,90.07
2022-08-26T03:49:20.883Z,90.40
2022-08-26T03:51:47.371Z,90.95
2022-08-26T03:54:14.150Z,91.42
2022-08-26T03:56:40.925Z,91.36
2022-08-26T03:59:08.312Z,92.06
2022-08-26T04:01:36.185Z,92.19
2022-08-26T04:04:03.753Z,92.02
2022-08-26T04:06:36.741Z,92.41
2022-08-26T04:09:08.400Z,92.36
2022-08-26T04:11:37.749Z,92.57
2022-08-26T04:14:07.667Z,92.12
2022-08-26T04:16:35.248Z,92.46
2022-08-26T04:19:03.974Z,92.88
2022-08-26T04:21:30.691Z,93.04
2022-08-26T04:23:58.321Z,92.84
2022-08-26T04:26:25.143Z,92.75
2022-08-26T04:28:56.001Z,93.42
2022-08-26T04:31:23.097Z,93.29
2022-08-26T04:33:50.627Z,94.03
2022-08-26T04:36:19.934Z,93.57
2022-08-26T04:38:47.685Z,93.68
2022-08-26T04:41:14.844Z,93.50
2022-08-26T04:43:42.276Z,92.65
2022-08-26T04:46:10.435Z,92.15
2022-08-26T04:48:40.821Z,92.34
2022-08-26T04:51:07.524Z,92.61
2022-08-26T04:53:34.950Z,93.01
2022-08-26T04:56:05.045Z,93.31
2022-08-26T04:58:32.661Z,94.56
2022-08-26T05:00:59.328Z,94.97
2022-08-26T05:03:30.462Z,95.38
2022-08-26T05:05:57.993Z,95.86
2022-08-26T05:08:25.034Z,96.33
2022-08-26T05:10:56.126Z,96.13
2022-08-26T05:13:25.368Z,95.90
2022-08-26T05:15:52.096Z,95.93
2022-08-26T05:18:22.823Z,95.98
2022-08-26T05:20:54.001Z,95.22
2022-08-26T05:23:23.741Z,95.54
2022-08-26T05:25:57.042Z,95.66
2022-08-26T05:28:27.180Z,96.02
2022-08-26T05:30:55.520Z,96.04
2022-08-26T05:33:23.168Z,95.91
2022-08-26T05:35:49.800Z,96.34
2022-08-26T05:38:19.659Z,95.63
2022-08-26T05:40:52.950Z,96.05
2022-08-26T05:43:20.492Z,96.42
2022-08-26T05:45:49.567Z,95.66
2022-08-26T05:48:19.051Z,95.84
2022-08-26T05:50:52.417Z,95.58
2022-08-26T05:53:21.166Z,95.39
2022-08-26T05:55:50.694Z,95.71
2022-08-26T05:58:21.087Z,95.47
2022-08-26T06:01:21.883Z,95.65
2022-08-26T06:03:57.251Z,95.35
2022-08-26T06:06:34.661Z,95.57
2022-08-26T06:09:04.600Z,95.65
2022-08-26T06:11:32.525Z,96.13
2022-08-26T06:14:03.924Z,96.23
2022-08-26T06:16:33.740Z,95.98
2022-08-26T06:19:03.462Z,97.24
2022-08-26T06:21:39.263Z,94.94
2022-08-26T06:24:27.419Z,94.14
2022-08-26T06:27:01.599Z,92.81
2022-08-26T06:29:30.635Z,92.50
2022-08-26T06:31:58.090Z,91.27
2022-08-26T06:34:29.722Z,91.91
2022-08-26T06:37:01.310Z,91.39
2022-08-26T06:39:30.585Z,90.60
2022-08-26T06:41:57.176Z,91.21
2022-08-26T06:44:24.476Z,91.32
2022-08-26T06:46:51.582Z,91.47
2022-08-26T06:49:18.420Z,90.50
2022-08-26T06:51:54.337Z,90.75
2022-08-26T06:54:21.159Z,90.38
2022-08-26T06:56:48.023Z,89.63
2022-08-26T06:59:15.494Z,89.12
2022-08-26T07:01:46.607Z,89.13
2022-08-26T07:04:15.749Z,88.54
2022-08-26T07:06:50.276Z,88.20
2022-08-26T07:09:25.209Z,87.66
2022-08-26T07:11:56.029Z,88.12
2022-08-26T07:14:22.971Z,86.62
2022-08-26T07:16:50.808Z,86.01
2022-08-26T07:19:27.574Z,85.56
2022-08-26T07:22:04.215Z,83.82
2022-08-26T07:24:33.677Z,83.69
2022-08-26T07:27:06.179Z,81.62
2022-08-26T07:29:33.410Z,81.37
2022-08-26T07:32:00.773Z,80.99
2022-08-26T07:34:28.179Z,80.00
2022-08-26T07:36:56.687Z,80.27
2022-08-26T07:39:24.639Z,80.19
2022-08-26T07:41:51.942Z,80.60
2022-08-26T07:44:19.307Z,79.17
2022-08-26T07:46:46.839Z,78.55
2022-08-26T07:49:25.035Z,76.62
2022-08-26T07:51:54.851Z,76.00
2022-08-26T07:54:24.616Z,74.93
2022-08-26T07:56:54.300Z,74.95
2022-08-26T07:59:23.806Z,72.83
2022-08-26T08:01:51.018Z,71.53
2022-08-26T08:04:20.981Z,71.95
2022-08-26T08:06:52.765Z,72.21
2022-08-26T08:09:19.500Z,73.18
2022-08-26T08:11:49.786Z,73.77
2022-08-26T08:14:18.306Z,72.73
2022-08-26T08:16:51.105Z,71.40
2022-08-26T08:19:21.899Z,71.39
2022-08-26T08:21:49.399Z,70.98
2022-08-26T08:24:16.337Z,70.43
2022-08-26T08:26:42.912Z,70.29
2022-08-26T08:29:09.570Z,69.82
2022-08-26T08:34:25.982Z,68.33
2022-08-26T08:36:53.660Z,68.90
2022-08-26T08:39:21.958Z,69.37
2022-08-26T08:41:56.514Z,68.30
2022-08-26T08:47:03.711Z,66.22
2022-08-26T08:49:32.986Z,67.76
2022-08-26T08:52:11.359Z,65.88
2022-08-26T08:54:38.108Z,66.86
2022-08-26T08:57:18.368Z,65.25
2022-08-26T08:59:58.489Z,64.57
2022-08-26T09:02:37.207Z,66.64
2022-08-26T09:05:35.726Z,64.76
2022-08-26T09:08:12.177Z,66.12
2022-08-26T09:10:45.552Z,64.74
2022-08-26T09:13:24.877Z,61.20
2022-08-26T09:16:06.674Z,60.00
2022-08-26T09:18:37.015Z,58.28
2022-08-26T09:21:08.330Z,56.18
2022-08-26T09:23:38.461Z,54.12
2022-08-26T09:26:18.667Z,53.74
2022-08-26T09:29:01.773Z,52.59
2022-08-26T09:31:32.342Z,51.20
2022-08-26T09:34:27.368Z,51.72
2022-08-26T09:36:59.654Z,52.12
2022-08-26T09:39:30.216Z,51.22
2022-08-26T09:42:08.453Z,50.95
2022-08-26T09:44:55.195Z,50.63
2022-08-26T09:47:45.789Z,50.97
2022-08-26T09:50:31.552Z,52.39
2022-08-26T09:53:03.933Z,52.50
2022-08-26T09:55:37.192Z,52.23
2022-08-26T09:58:08.680Z,50.63
2022-08-26T10:00:40.061Z,50.32
2022-08-26T10:03:11.755Z,50.34
2022-08-26T10:05:56.206Z,49.83
2022-08-26T10:08:33.352Z,49.03
2022-08-26T10:11:04.607Z,49.00
2022-08-26T10:13:31.153Z,49.45
2022-08-26T10:16:28.593Z,48.30
2022-08-26T10:19:10.438Z,47.56
2022-08-26T10:21:56.903Z,47.44
2022-08-26T10:24:30.927Z,45.76
2022-08-26T10:27:05.730Z,44.60
2022-08-26T10:29:42.992Z,45.00
2022-08-26T10:32:19.577Z,43.68
2022-08-26T10:34:46.193Z,45.42
2022-08-26T10:37:18.433Z,43.62
2022-08-26T10:40:07.475Z,44.28
2022-08-26T10:42:46.404Z,44.48
2022-08-26T10:45:25.196Z,42.73
2022-08-26T10:47:58.281Z,43.52
2022-08-26T10:50:31.876Z,43.58
2022-08-26T10:53:16.964Z,43.53
2022-08-26T10:55:57.021Z,43.40
2022-08-26T10:58:45.188Z,45.44
2022-08-26T11:01:41.285Z,42.61
2022-08-26T11:04:34.887Z,40.99
2022-08-26T11:07:31.698Z,41.58
2022-08-26T11:10:04.963Z,40.23
2022-08-26T11:12:34.918Z,39.77
2022-08-26T11:15:08.151Z,38.39
2022-08-26T11:17:44.507Z,37.91
2022-08-26T11:20:23.909Z,37.14
2022-08-26T11:22:51.828Z,37.57
2022-08-26T11:25:21.202Z,36.36
2022-08-26T11:27:47.624Z,36.08
2022-08-26T11:30:15.720Z,34.80
2022-08-26T11:32:51.486Z,34.17
2022-08-26T11:35:17.887Z,34.24
2022-08-26T11:37:48.067Z,34.15
2022-08-26T11:40:21.192Z,34.20
2022-08-26T11:43:02.365Z,35.39
2022-08-26T11:45:38.942Z,38.10
2022-08-26T11:48:17.916Z,36.66
2022-08-26T11:50:57.159Z,35.77
2022-08-26T11:53:25.590Z,35.08
2022-08-26T11:55:56.149Z,34.90
2022-08-26T11:58:24.652Z,35.31
2022-08-26T12:00:58.217Z,33.48
2022-08-26T12:03:45.575Z,32.94
2022-08-26T12:09:01.200Z,33.69
2022-08-26T12:11:31.482Z,34.16
2022-08-26T12:13:58.346Z,32.29
2022-08-26T12:16:28.229Z,33.01
2022-08-26T12:18:57.325Z,33.58
2022-08-26T12:21:34.645Z,32.14
2022-08-26T12:24:03.309Z,32.91
2022-08-26T12:26:31.815Z,32.00
2022-08-26T12:29:20.281Z,32.87
2022-08-26T12:32:17.486Z,33.52
2022-08-26T12:34:46.966Z,31.43
2022-08-26T12:37:15.267Z,33.05
2022-08-26T12:39:44.969Z,31.49
2022-08-26T12:42:17.300Z,31.64
2022-08-26T12:44:53.418Z,30.27
2022-08-26T12:47:51.681Z,29.91
2022-08-26T12:50:22.603Z,29.86
2022-08-26T12:53:10.199Z,30.50
2022-08-26T12:55:58.417Z,32.05
2022-08-26T12:58:31.789Z,30.97
2022-08-26T13:01:24.754Z,29.74
2022-08-26T13:03:52.060Z,28.83
2022-08-26T13:06:22.157Z,29.64
2022-08-26T13:08:51.331Z,29.10
2022-08-26T13:11:23.711Z,27.71
2022-08-26T13:13:53.449Z,27.59
2022-08-26T13:16:21.801Z,28.00
2022-08-26T13:18:52.958Z,27.30
2022-08-26T13:21:22.863Z,26.64
2022-08-26T13:23:50.466Z,25.73
2022-08-26T13:26:18.086Z,26.13
2022-08-26T13:28:44.849Z,25.29
2022-08-26T13:31:19.517Z,26.72
2022-08-26T13:33:46.664Z,25.83
2022-08-26T13:36:15.191Z,25.75
2022-08-26T13:38:42.209Z,25.24
2022-08-26T13:41:15.079Z,25.16
2022-08-26T13:43:43.303Z,26.07
2022-08-26T13:46:10.048Z,25.86
2022-08-26T13:48:36.807Z,26.39
2022-08-26T13:51:08.275Z,27.41
2022-08-26T13:53:35.871Z,29.07
2022-08-26T13:56:02.696Z,28.00
2022-08-26T13:58:29.640Z,27.73
2022-08-26T14:00:58.339Z,27.43
2022-08-26T14:03:24.972Z,27.05
2022-08-26T14:05:53.322Z,25.39
2022-08-26T14:08:21.012Z,25.43
2022-08-26T14:13:20.061Z,24.22
2022-08-26T14:15:46.965Z,25.19
2022-08-26T14:18:18.923Z,24.90
2022-08-26T14:20:49.614Z,24.16
2022-08-26T14:23:17.833Z,23.79
2022-08-26T14:25:44.340Z,25.02
2022-08-26T14:28:11.985Z,25.57
2022-08-26T14:30:44.213Z,25.65
2022-08-26T14:33:13.450Z,25.44
2022-08-26T14:35:40.421Z,25.40
2022-08-26T14:38:16.653Z,24.69
2022-08-26T14:40:44.868Z,24.50
2022-08-26T14:43:15.129Z,24.57
2022-08-26T14:45:44.066Z,24.33
2022-08-26T14:48:10.925Z,23.95
2022-08-26T14:50:38.192Z,24.09
2022-08-26T14:53:23.319Z,24.62
2022-08-26T14:55:50.405Z,24.20
2022-08-26T14:58:17.241Z,24.35
2022-08-26T15:00:43.756Z,24.45
2022-08-26T15:03:10.706Z,24.46
2022-08-26T15:05:38.653Z,26.79
2022-08-26T15:08:10.491Z,27.90
2022-08-26T15:10:38.087Z,27.42
2022-08-26T15:13:04.847Z,27.54
2022-08-26T15:15:31.274Z,30.53
2022-08-26T15:17:57.736Z,31.27
2022-08-26T15:20:25.020Z,31.59
2022-08-26T15:22:51.682Z,31.89
2022-08-26T15:25:20.178Z,29.76
2022-08-26T15:27:46.884Z,30.20
2022-08-26T15:30:13.735Z,30.36
2022-08-26T15:32:40.376Z,30.84
2022-08-26T15:35:09.257Z,30.94
2022-08-26T15:37:36.772Z,31.65
2022-08-26T15:40:04.725Z,29.82
2022-08-26T15:42:31.367Z,31.48
2022-08-26T15:44:58.048Z,31.73
2022-08-26T15:47:25.031Z,31.17
2022-08-26T15:49:51.629Z,30.59
2022-08-26T15:52:18.313Z,31.61
2022-08-26T15:54:44.953Z,32.03
2022-08-26T15:57:13.615Z,32.04
2022-08-26T15:59:42.344Z,32.55
2022-08-26T16:02:09.749Z,34.57
2022-08-26T16:04:36.636Z,35.12
2022-08-26T16:07:04.568Z,34.97
2022-08-26T16:09:31.264Z,35.29
2022-08-26T16:11:58.053Z,35.15
2022-08-26T16:14:25.530Z,35.42
2022-08-26T16:16:53.539Z,35.47
2022-08-26T16:19:20.956Z,35.24
2022-08-26T16:21:48.356Z,34.23
2022-08-26T16:24:14.864Z,35.72
2022-08-26T16:26:43.727Z,36.32
2022-08-26T16:29:12.441Z,35.47
2022-08-26T16:31:39.451Z,36.68
2022-08-26T16:34:08.140Z,36.44
2022-08-26T16:36:36.234Z,36.82
2022-08-26T16:39:05.068Z,37.79
2022-08-26T16:41:32.293Z,39.25
2022-08-26T16:43:59.546Z,39.58
2022-08-26T16:46:26.790Z,40.04
2022-08-26T16:48:55.213Z,41.41
2022-08-26T16:51:23.875Z,41.92
2022-08-26T16:53:51.678Z,42.42
2022-08-26T16:56:23.963Z,42.96
2022-08-26T16:59:00.143Z,43.51
2022-08-26T17:01:26.808Z,44.26
2022-08-26T17:03:54.106Z,44.79
2022-08-26T17:06:20.925Z,44.79
2022-08-26T17:08:47.759Z,45.52
2022-08-26T17:11:15.177Z,45.75
2022-08-26T17:13:41.829Z,47.05
2022-08-26T17:16:10.661Z,47.48
2022-08-26T17:18:37.755Z,47.60
2022-08-26T17:21:08.121Z,48.15
2022-08-26T17:23:35.813Z,48.05
2022-08-26T17:26:03.256Z,50.10
2022-08-26T17:28:29.836Z,50.20
2022-08-26T17:30:58.305Z,50.68
2022-08-26T17:33:25.957Z,51.07
2022-08-26T17:35:53.618Z,50.49
2022-08-26T17:38:21.347Z,50.52
2022-08-26T17:40:48.401Z,52.02
2022-08-26T17:43:15.230Z,52.46
2022-08-26T17:45:41.693Z,52.49
2022-08-26T17:48:08.580Z,52.82
2022-08-26T17:50:35.602Z,53.56
2022-08-26T17:53:02.140Z,52.99
2022-08-26T17:55:29.057Z,53.80
2022-08-26T17:57:55.603Z,53.98
2022-08-26T18:00:26.414Z,53.78
2022-08-26T18:02:54.813Z,53.94
2022-08-26T18:05:22.219Z,55.70
2022-08-26T18:07:48.785Z,54.10
2022-08-26T18:10:17.674Z,55.68
2022-08-26T18:12:45.125Z,55.95
2022-08-26T18:15:15.686Z,56.43
2022-08-26T18:17:44.597Z,56.58
2022-08-26T18:20:15.292Z,54.96
2022-08-26T18:22:42.964Z,56.03
2022-08-26T18:25:10.120Z,55.96
2022-08-26T18:27:37.539Z,57.64
2022-08-26T18:30:10.499Z,58.87
2022-08-26T18:32:39.002Z,60.05
2022-08-26T18:35:06.115Z,61.35
2022-08-26T18:37:34.203Z,62.94
2022-08-26T18:40:01.009Z,62.28
2022-08-26T18:42:28.351Z,64.22
2022-08-26T18:44:55.318Z,65.54
2022-08-26T18:47:22.871Z,66.08
2022-08-26T18:49:49.652Z,67.47
2022-08-26T18:52:16.223Z,66.91
2022-08-26T18:54:43.338Z,67.15
2022-08-26T18:57:10.339Z,68.49
2022-08-26T18:59:37.813Z,68.66
2022-08-26T19:02:05.264Z,70.46
2022-08-26T19:04:32.198Z,69.86
2022-08-26T19:06:58.953Z,71.59
2022-08-26T19:09:28.367Z,70.61
2022-08-26T19:14:28.400Z,72.79
2022-08-26T19:16:55.600Z,71.01
2022-08-26T19:19:25.555Z,71.12
2022-08-26T19:21:54.912Z,71.55
2022-08-26T19:24:23.045Z,70.47
2022-08-26T19:26:57.854Z,72.48
2022-08-26T19:29:27.559Z,72.01
2022-08-26T19:31:54.525Z,71.86
2022-08-26T19:34:21.119Z,70.54
2022-08-26T19:36:48.124Z,73.29
2022-08-26T19:39:14.579Z,72.39
2022-08-26T19:41:41.532Z,79.68
2022-08-26T19:44:12.984Z,86.89
2022-08-26T19:46:40.174Z,88.68
2022-08-26T19:49:06.837Z,89.86
2022-08-26T19:51:36.512Z,88.62
2022-08-26T19:54:04.216Z,87.33
2022-08-26T19:56:31.609Z,90.98
2022-08-26T19:58:59.078Z,90.19
2022-08-26T20:01:30.852Z,88.79
2022-08-26T20:03:57.650Z,90.46
2022-08-26T20:06:24.393Z,88.23
2022-08-26T20:08:52.020Z,88.85
2022-08-26T20:11:20.689Z,89.21
2022-08-26T20:13:48.143Z,88.18
2022-08-26T20:16:16.574Z,87.55
2022-08-26T20:19:03.317Z,88.90
2022-08-26T20:21:34.024Z,89.16
2022-08-26T20:24:04.998Z,89.22
2022-08-26T20:26:34.538Z,88.92
2022-08-26T20:29:03.579Z,88.57
2022-08-26T20:31:31.306Z,90.08
2022-08-26T20:33:58.032Z,89.53
2022-08-26T20:36:27.335Z,88.41
2022-08-26T20:38:55.328Z,88.81
2022-08-26T20:41:25.249Z,88.51
2022-08-26T20:43:52.867Z,88.62
2022-08-26T20:46:24.105Z,89.64
2022-08-26T20:48:52.611Z,88.44
2022-08-26T20:51:20.351Z,89.51
2022-08-26T20:53:50.645Z,89.68
2022-08-26T20:56:22.108Z,88.94
2022-08-26T20:58:49.963Z,88.62
2022-08-26T21:01:20.142Z,92.55
2022-08-26T21:03:48.023Z,95.98
2022-08-26T21:06:14.784Z,96.71
2022-08-26T21:08:43.196Z,96.46
2022-08-26T21:11:11.517Z,97.58
2022-08-26T21:14:01.273Z,97.61
2022-08-26T21:16:24.847Z,98.31
2022-08-26T21:18:51.646Z,100.00
2022-08-26T21:21:18.534Z,100.00
2022-08-26T21:23:52.165Z,100.00
2022-08-26T21:26:18.896Z,100.00
2022-08-26T21:28:46.309Z,100.00
2022-08-26T21:31:15.901Z,100.00
2022-08-26T21:33:43.138Z,100.00
2022-08-26T21:36:11.524Z,100.00
2022-08-26T21:38:38.545Z,100.00
2022-08-26T21:41:09.357Z,100.00
2022-08-26T21:43:36.607Z,100.00
2022-08-26T21:46:14.310Z,100.00
2022-08-26T21:48:56.115Z,100.00
2022-08-26T21:51:25.273Z,100.00
2022-08-26T21:53:54.651Z,100.00
2022-08-26T21:56:26.109Z,100.00
2022-08-26T21:58:54.986Z,100.00
2022-08-26T22:01:24.671Z,100.00
2022-08-26T22:03:54.627Z,100.00
2022-08-26T22:06:26.961Z,100.00
2022-08-26T22:08:54.569Z,100.00
2022-08-26T22:11:21.651Z,100.00
2022-08-26T22:13:49.313Z,100.00
2022-08-26T22:16:16.915Z,100.00
2022-08-26T22:18:45.136Z,100.00
2022-08-26T22:21:15.419Z,100.00
2022-08-26T22:23:41.975Z,100.00
2022-08-26T22:26:10.559Z,100.00
2022-08-26T22:28:37.225Z,100.00
2022-08-26T22:31:03.894Z,100.00
2022-08-26T22:33:30.689Z,100.00
2022-08-26T22:35:57.359Z,100.00
2022-08-26T22:38:24.007Z,100.00
2022-08-26T22:40:56.468Z,100.00
2022-08-26T22:43:28.609Z,100.00
2022-08-26T22:45:57.104Z,100.00
2022-08-26T22:48:26.372Z,100.00
2022-08-26T22:50:59.604Z,100.00
2022-08-26T22:53:27.305Z,100.00
2022-08-26T22:55:54.356Z,99.67
2022-08-26T22:58:21.329Z,100.00
2022-08-26T23:00:57.846Z,100.00
2022-08-26T23:03:27.021Z,100.00
2022-08-26T23:05:55.403Z,100.00
2022-08-26T23:08:23.307Z,100.00
2022-08-26T23:10:50.663Z,99.66
2022-08-26T23:13:18.705Z,100.00
2022-08-26T23:15:45.735Z,99.36
2022-08-26T23:18:14.197Z,98.19
2022-08-26T23:20:40.877Z,97.57
2022-08-26T23:23:08.131Z,97.28
2022-08-26T23:25:35.237Z,97.11
2022-08-26T23:28:02.440Z,96.85
2022-08-26T23:30:32.046Z,96.23
2022-08-26T23:32:58.931Z,97.00
2022-08-26T23:35:27.083Z,96.95
2022-08-26T23:37:53.625Z,96.96
2022-08-26T23:40:28.074Z,97.08
2022-08-26T23:42:56.743Z,97.38
2022-08-26T23:45:24.514Z,97.07
2022-08-26T23:47:52.185Z,96.78
2022-08-26T23:50:22.246Z,96.74
2022-08-26T23:53:08.912Z,97.38
2022-08-26T23:55:38.000Z,96.83
2022-08-26T23:58:05.836Z,97.17
